.
WxDataArchive / Data Records for 2010-04-12
2010-04-11 April 2010 2010-04-13

Data Records for Monday, 12 April 2010

Time	Temp	Chill	HIndex	Humid	Dewpt	 Wind 	HiWind	WindDir	Rain 	Barom 
-----	----	-----	------	-----	-----	------	------	-------	-----	----- 
00:00	48.2	48.2	48.2	77	41.3	0	0	---	0.00	30.333 
00:05	48.2	48.2	48.2	77	41.3	0	0	---	0.00	30.333 
00:10	48.2	48.2	48.2	77	41.3	0	0	---	0.00	30.333 
00:15	48.2	48.2	48.2	77	41.3	0	0	---	0.00	30.331 
00:20	48.0	48.0	48.0	77	41.1	0	0	---	0.00	30.331 
00:25	48.0	48.0	48.0	77	41.1	0	0	---	0.00	30.331 
00:30	47.9	47.9	47.9	77	41.0	0	0	---	0.00	30.332 
00:35	47.9	47.9	47.9	77	41.0	0	0	---	0.00	30.332 
00:40	48.0	48.0	48.0	77	41.1	0	0	---	0.00	30.332 
00:45	48.0	48.0	48.0	77	41.1	0	0	---	0.00	30.334 
00:50	48.2	48.2	48.2	76	41.0	0	0	---	0.00	30.334 
00:55	48.2	48.2	48.2	76	41.0	0	0	---	0.00	30.334 
01:00	48.2	48.2	48.2	76	41.0	0	0	---	0.00	30.336 
01:05	48.0	48.0	48.0	76	40.8	0	0	---	0.00	30.336 
01:10	47.9	47.9	47.9	76	40.7	0	0	---	0.00	30.336 
01:15	47.7	47.7	47.7	76	40.5	0	0	---	0.00	30.340 
01:20	47.6	47.6	47.6	77	40.8	0	0	---	0.00	30.340 
01:25	47.3	47.3	47.3	77	40.5	0	0	---	0.00	30.340 
01:30	47.0	47.0	47.0	77	40.2	0	0	---	0.00	30.344 
01:35	46.8	46.8	46.8	77	40.0	0	0	---	0.00	30.344 
01:40	46.5	46.5	46.5	78	40.0	0	0	---	0.00	30.344 
01:45	46.2	46.2	46.2	78	39.7	0	0	---	0.00	30.339 
01:50	46.1	46.1	46.1	79	40.0	0	0	---	0.00	30.339 
01:55	45.8	45.8	45.8	79	39.7	0	0	---	0.00	30.339 
02:00	45.8	45.8	45.8	79	39.7	0	0	---	0.00	30.338 
02:05	45.8	45.8	45.8	79	39.7	0	0	---	0.00	30.338 
02:10	45.7	45.7	45.7	79	39.6	0	0	---	0.00	30.338 
02:15	45.5	45.5	45.5	79	39.4	0	0	---	0.00	30.330 
02:20	45.5	45.5	45.5	80	39.7	0	2	0	0.00	30.330 
02:25	46.0	46.0	46.0	76	38.9	0	1	0	0.00	30.330 
02:30	46.4	46.4	46.4	75	38.9	0	0	---	0.00	30.346 
02:35	47.0	47.0	47.0	72	38.4	1	4	0	0.00	30.346 
02:40	48.0	48.0	48.0	69	38.3	2	4	135	0.00	30.346 
02:45	48.8	48.8	48.8	68	38.7	1	3	112	0.00	30.345 
02:50	48.9	48.9	48.9	68	38.8	0	2	112	0.00	30.345 
02:55	48.9	48.9	48.9	68	38.8	0	2	112	0.00	30.345 
03:00	48.9	48.9	48.9	68	38.8	1	3	112	0.00	30.360 
03:05	48.9	48.9	48.9	69	39.2	1	3	112	0.00	30.360 
03:10	48.8	48.8	48.8	69	39.1	2	10	22	0.00	30.360 
03:15	48.5	48.5	48.5	68	38.4	1	2	315	0.00	30.365 
03:20	48.2	48.2	48.2	66	37.4	2	9	112	0.00	30.365 
03:25	47.9	47.9	47.9	64	36.3	2	7	112	0.00	30.365 
03:30	47.6	47.6	47.6	63	35.6	2	5	112	0.00	30.371 
03:35	47.3	47.3	47.3	62	34.9	2	5	112	0.00	30.371 
03:40	46.8	46.8	46.8	62	34.5	1	5	135	0.00	30.371 
03:45	46.7	46.7	46.7	61	34.0	2	5	112	0.00	30.374 
03:50	46.5	46.5	46.5	60	33.4	1	5	112	0.00	30.374 
03:55	46.2	46.2	46.2	61	33.5	1	5	112	0.00	30.374 
04:00	46.1	46.1	46.1	61	33.4	1	3	112	0.00	30.378 
04:05	46.0	46.0	46.0	61	33.3	0	2	112	0.00	30.378 
04:10	45.7	45.7	45.7	62	33.4	0	3	135	0.00	30.378 
04:15	45.5	45.5	45.5	61	32.8	1	6	112	0.00	30.378 
04:20	45.2	45.2	45.2	62	33.0	1	3	112	0.00	30.378 
04:25	45.1	45.1	45.1	62	32.9	0	2	112	0.00	30.378 
04:30	44.8	44.8	44.8	62	32.6	0	3	90	0.00	30.382 
04:35	44.5	44.5	44.5	62	32.3	0	2	90	0.00	30.382 
04:40	44.3	44.3	44.3	62	32.1	0	2	90	0.00	30.382 
04:45	44.1	44.1	44.1	62	31.9	0	1	90	0.00	30.383 
04:50	43.9	43.9	43.9	62	31.7	0	0	---	0.00	30.383 
04:55	43.8	43.8	43.8	62	31.6	0	0	---	0.00	30.383 
05:00	43.6	43.6	43.6	61	31.0	0	3	90	0.00	30.380 
05:05	43.6	43.6	43.6	62	31.5	0	1	90	0.00	30.380 
05:10	43.5	43.5	43.5	62	31.4	0	1	90	0.00	30.380 
05:15	43.3	43.3	43.3	61	30.8	0	3	90	0.00	30.393 
05:20	43.3	43.3	43.3	60	30.4	0	3	90	0.00	30.393 
05:25	43.3	43.3	43.3	60	30.4	1	3	135	0.00	30.393 
05:30	43.2	43.2	43.2	60	30.3	0	2	135	0.00	30.395 
05:35	43.1	43.1	43.1	60	30.2	0	1	135	0.00	30.395 
05:40	42.9	42.9	42.9	61	30.4	0	1	135	0.00	30.395 
05:45	42.8	42.8	42.8	61	30.3	0	1	135	0.00	30.394 
05:50	42.5	42.5	42.5	62	30.4	0	1	135	0.00	30.394 
05:55	42.2	42.2	42.2	62	30.1	0	0	---	0.00	30.394 
06:00	42.1	42.1	42.1	62	30.0	0	0	---	0.00	30.395 
06:05	41.9	41.9	41.9	63	30.2	0	1	135	0.00	30.395 
06:10	41.8	41.8	41.8	62	29.7	0	0	---	0.00	30.395 
06:15	41.6	41.6	41.6	62	29.6	0	0	---	0.00	30.403 
06:20	41.6	41.6	41.6	61	29.2	0	0	---	0.00	30.403 
06:25	41.6	41.6	41.6	60	28.8	0	1	135	0.00	30.403 
06:30	41.6	41.6	41.6	60	28.8	0	2	135	0.00	30.411 
06:35	41.8	41.8	41.8	60	28.9	0	1	135	0.00	30.411 
06:40	41.8	41.8	41.8	59	28.5	0	3	135	0.00	30.411 
06:45	41.9	41.9	41.9	59	28.6	0	1	112	0.00	30.415 
06:50	41.9	41.9	41.9	59	28.6	0	1	112	0.00	30.415 
06:55	41.9	41.9	41.9	58	28.2	0	1	112	0.00	30.415 
07:00	41.9	41.9	41.9	58	28.2	0	3	112	0.00	30.421 
07:05	41.9	41.9	41.9	58	28.2	1	3	112	0.00	30.421 
07:10	41.9	41.9	41.9	58	28.2	1	3	112	0.00	30.421 
07:15	41.9	41.9	41.9	58	28.2	1	2	112	0.00	30.429 
07:20	41.9	41.9	41.9	58	28.2	1	3	112	0.00	30.429 
07:25	41.9	41.9	41.9	58	28.2	0	4	112	0.00	30.429 
07:30	41.9	41.9	41.9	58	28.2	0	2	112	0.00	30.431 
07:35	41.9	41.9	41.9	59	28.6	0	2	112	0.00	30.431 
07:40	42.1	42.1	42.1	59	28.8	0	3	112	0.00	30.431 
07:45	42.2	42.2	42.2	58	28.5	1	3	112	0.00	30.433 
07:50	42.3	42.3	42.3	57	28.2	1	3	112	0.00	30.433 
07:55	42.6	42.6	42.6	58	28.9	1	4	90	0.00	30.433 
08:00	42.9	42.9	42.9	57	28.7	1	4	90	0.00	30.437 
08:05	43.1	43.1	43.1	57	28.9	0	2	90	0.00	30.437 
08:10	43.3	43.3	43.3	57	29.1	1	3	90	0.00	30.437 
08:15	43.6	43.6	43.6	56	29.0	1	3	90	0.00	30.448 
08:20	43.8	43.8	43.8	57	29.6	1	3	112	0.00	30.448 
08:25	43.8	43.8	43.8	57	29.6	1	3	112	0.00	30.448 
08:30	43.9	43.9	43.9	57	29.7	0	1	112	0.00	30.452 
08:35	44.2	44.2	44.2	57	29.9	1	2	112	0.00	30.452 
08:40	44.6	44.6	44.6	56	29.9	1	2	112	0.00	30.452 
08:45	45.2	45.2	45.2	55	30.0	1	3	112	0.00	30.451 
08:50	46.0	46.0	46.0	54	30.3	1	3	112	0.00	30.451 
08:55	46.4	46.4	46.4	53	30.2	2	4	112	0.00	30.451 
09:00	46.8	46.8	46.8	52	30.1	2	7	90	0.00	30.446 
09:05	47.4	47.4	47.4	51	30.2	2	5	90	0.00	30.446 
09:10	48.0	48.0	48.0	50	30.3	2	4	90	0.00	30.446 
09:15	48.5	48.5	48.5	49	30.2	2	4	90	0.00	30.455 
09:20	48.9	48.9	48.9	47	29.6	3	5	112	0.00	30.455 
09:25	49.5	49.5	49.5	46	29.6	3	6	90	0.00	30.455 
09:30	49.8	49.8	49.8	46	29.9	2	6	112	0.00	30.452 
09:35	50.1	50.1	50.1	46	30.1	3	7	112	0.00	30.452 
09:40	50.1	50.1	50.1	47	30.7	4	6	112	0.00	30.452 
09:45	50.2	50.2	50.2	47	30.8	3	7	112	0.00	30.449 
09:50	50.7	50.7	50.7	46	30.7	4	8	112	0.00	30.449 
09:55	51.3	51.3	51.3	46	31.2	2	6	90	0.00	30.449 
10:00	52.0	52.0	52.0	42	29.6	3	5	90	0.00	30.450 
10:05	52.6	52.6	52.6	40	29.0	4	7	112	0.00	30.450 
10:10	53.3	53.3	53.3	39	29.0	3	8	112	0.00	30.450 
10:15	53.6	53.6	53.6	41	30.5	4	7	112	0.00	30.448 
10:20	54.1	54.1	54.1	40	30.3	3	6	112	0.00	30.448 
10:25	54.7	54.7	54.7	40	30.9	3	7	112	0.00	30.448 
10:30	55.3	55.3	55.3	39	30.8	2	5	112	0.00	30.448 
10:35	55.7	55.7	55.7	38	30.5	4	9	112	0.00	30.448 
10:40	55.9	55.9	55.9	39	31.3	3	7	112	0.00	30.448 
10:45	56.5	56.5	56.5	40	32.5	3	5	112	0.00	30.443 
10:50	56.9	56.9	56.9	38	31.6	4	9	90	0.00	30.443 
10:55	57.2	57.2	57.2	37	31.2	4	7	90	0.00	30.443 
11:00	57.8	57.8	57.8	37	31.7	3	5	90	0.00	30.449 
11:05	58.6	58.6	58.6	37	32.4	2	6	90	0.00	30.449 
11:10	58.9	58.9	58.9	35	31.3	2	6	90	0.00	30.449 
11:15	59.3	59.3	59.3	36	32.4	3	7	112	0.00	30.452 
11:20	59.5	59.5	59.5	35	31.8	3	5	112	0.00	30.452 
11:25	59.3	59.3	59.3	34	30.9	4	7	112	0.00	30.452 
11:30	59.5	59.5	59.5	32	29.6	3	6	112	0.00	30.441 
11:35	59.5	59.5	59.5	33	30.4	5	12	112	0.00	30.441 
11:40	59.9	59.9	59.9	33	30.7	3	10	112	0.00	30.441 
11:45	60.5	60.5	60.5	32	30.5	4	9	112	0.00	30.437 
11:50	60.7	60.7	60.7	29	28.3	4	7	90	0.00	30.437 
11:55	60.7	60.7	60.7	30	29.1	5	10	112	0.00	30.437 
12:00	60.7	60.7	60.7	31	29.9	4	7	112	0.00	30.436 
12:05	60.9	60.9	60.9	30	29.3	4	10	112	0.00	30.436 
12:10	61.2	61.2	61.2	28	27.8	4	10	112	0.00	30.436 
12:15	61.3	61.3	61.3	27	27.0	4	12	112	0.00	30.434 
12:20	61.8	61.8	61.8	27	27.5	4	9	112	0.00	30.434 
12:25	62.3	62.3	62.3	26	27.0	4	10	112	0.00	30.434 
12:30	62.6	62.6	62.6	28	29.0	4	10	112	0.00	30.430 
12:35	63.1	63.1	63.1	27	28.6	3	5	90	0.00	30.430 
12:40	63.4	63.4	63.4	24	26.0	4	10	90	0.00	30.430 
12:45	63.2	63.2	63.2	24	25.8	4	11	90	0.00	30.423 
12:50	62.9	62.9	62.9	25	26.5	5	12	112	0.00	30.423 
12:55	63.2	63.2	63.2	23	24.8	4	7	112	0.00	30.423 
13:00	63.4	63.4	63.4	23	25.0	5	11	90	0.00	30.411 
13:05	63.2	63.2	63.2	24	25.8	5	12	112	0.00	30.411 
13:10	63.5	63.5	63.5	24	26.1	4	10	112	0.00	30.411 
13:15	63.7	63.7	63.7	24	26.2	4	10	112	0.00	30.397 
13:20	64.0	64.0	64.0	25	27.5	4	9	112	0.00	30.397 
13:25	64.0	64.0	64.0	21	23.3	6	13	112	0.00	30.397 
13:30	64.0	64.0	64.0	21	23.3	5	11	112	0.00	30.396 
13:35	64.0	64.0	64.0	21	23.3	5	11	112	0.00	30.396 
13:40	64.3	64.3	64.3	21	23.5	4	10	112	0.00	30.396 
13:45	64.5	64.5	64.5	23	25.9	4	10	112	0.00	30.393 
13:50	64.3	64.3	64.3	23	25.7	5	13	112	0.00	30.393 
13:55	64.3	64.3	64.3	21	23.5	6	13	112	0.00	30.393 
14:00	64.3	64.3	64.3	21	23.5	6	11	112	0.00	30.392 
14:05	64.5	64.5	64.5	23	25.9	4	10	112	0.00	30.392 
14:10	64.8	64.8	64.8	21	24.0	4	9	112	0.00	30.392 
14:15	65.0	65.0	65.0	23	26.3	4	11	90	0.00	30.388 
14:20	64.8	64.8	64.8	21	24.0	5	11	112	0.00	30.388 
14:25	65.0	65.0	65.0	21	24.1	5	11	112	0.00	30.388 
14:30	65.2	65.2	65.2	22	25.4	3	6	90	0.00	30.382 
14:35	65.5	65.5	65.5	25	28.7	3	9	90	0.00	30.382 
14:40	65.5	65.5	65.5	22	25.6	4	9	112	0.00	30.382 
14:45	65.6	65.6	65.6	23	26.8	4	11	112	0.00	30.373 
14:50	65.6	65.6	65.6	22	25.7	5	11	112	0.00	30.373 
14:55	65.3	65.3	65.3	21	24.4	5	12	90	0.00	30.373 
15:00	65.0	65.0	65.0	21	24.1	6	13	112	0.00	30.369 
15:05	64.8	64.8	64.8	22	25.1	6	10	112	0.00	30.369 
15:10	65.2	65.2	65.2	25	28.5	3	6	112	0.00	30.369 
15:15	65.5	65.5	65.5	20	23.4	5	10	112	0.00	30.370 
15:20	65.3	65.3	65.3	24	27.6	4	10	90	0.00	30.370 
15:25	65.2	65.2	65.2	22	25.4	5	12	90	0.00	30.370 
15:30	65.2	65.2	65.2	22	25.4	4	13	112	0.00	30.364 
15:35	65.3	65.3	65.3	22	25.5	4	9	112	0.00	30.364 
15:40	65.2	65.2	65.2	22	25.4	4	10	112	0.00	30.364 
15:45	65.2	65.2	65.2	22	25.4	4	10	112	0.00	30.362 
15:50	65.0	65.0	65.0	21	24.1	4	10	112	0.00	30.362 
15:55	65.0	65.0	65.0	21	24.1	3	9	90	0.00	30.362 
16:00	65.0	65.0	65.0	24	27.3	4	10	90	0.00	30.359 
16:05	65.5	65.5	65.5	23	26.7	2	5	90	0.00	30.359 
16:10	65.6	65.6	65.6	21	24.6	3	10	90	0.00	30.359 
16:15	65.5	65.5	65.5	21	24.5	3	7	112	0.00	30.354 
16:20	65.0	65.0	65.0	21	24.1	3	11	112	0.00	30.354 
16:25	64.8	64.8	64.8	21	24.0	3	10	112	0.00	30.354 
16:30	64.7	64.7	64.7	23	26.1	3	7	112	0.00	30.348 
16:35	64.7	64.7	64.7	24	27.1	4	9	90	0.00	30.348 
16:40	64.7	64.7	64.7	22	25.0	3	9	90	0.00	30.348 
16:45	64.7	64.7	64.7	24	27.1	4	9	112	0.00	30.345 
16:50	64.7	64.7	64.7	23	26.1	3	7	112	0.00	30.345 
16:55	64.5	64.5	64.5	22	24.8	4	10	90	0.00	30.345 
17:00	64.5	64.5	64.5	24	26.9	4	9	90	0.00	30.342 
17:05	64.5	64.5	64.5	23	25.9	3	7	90	0.00	30.342 
17:10	64.5	64.5	64.5	22	24.8	5	13	112	0.00	30.342 
17:15	64.3	64.3	64.3	25	27.7	4	7	112	0.00	30.337 
17:20	64.3	64.3	64.3	22	24.6	5	11	112	0.00	30.337 
17:25	64.0	64.0	64.0	24	26.5	4	10	112	0.00	30.337 
17:30	64.0	64.0	64.0	24	26.5	3	6	112	0.00	30.337 
17:35	64.0	64.0	64.0	23	25.5	3	6	112	0.00	30.337 
17:40	64.0	64.0	64.0	24	26.5	3	6	112	0.00	30.337 
17:45	64.0	64.0	64.0	26	28.4	3	14	90	0.00	30.334 
17:50	64.0	64.0	64.0	24	26.5	3	7	112	0.00	30.334 
17:55	64.3	64.3	64.3	26	28.7	3	6	90	0.00	30.334 
18:00	64.5	64.5	64.5	22	24.8	3	7	112	0.00	30.332 
18:05	64.5	64.5	64.5	22	24.8	3	5	112	0.00	30.332 
18:10	64.3	64.3	64.3	22	24.6	3	7	90	0.00	30.332 
18:15	64.0	64.0	64.0	24	26.5	4	7	112	0.00	30.328 
18:20	63.7	63.7	63.7	22	24.1	4	10	90	0.00	30.328 
18:25	63.5	63.5	63.5	25	27.1	3	5	112	0.00	30.328 
18:30	63.4	63.4	63.4	24	26.0	3	7	112	0.00	30.327 
18:35	63.2	63.2	63.2	25	26.8	3	7	90	0.00	30.327 
18:40	63.1	63.1	63.1	26	27.7	2	6	90	0.00	30.327 
18:45	62.9	62.9	62.9	26	27.5	3	7	90	0.00	30.320 
18:50	62.7	62.7	62.7	26	27.3	3	7	112	0.00	30.320 
18:55	62.6	62.6	62.6	26	27.2	2	5	90	0.00	30.320 
19:00	62.4	62.4	62.4	26	27.1	3	6	112	0.00	30.322 
19:05	62.3	62.3	62.3	27	27.9	3	6	90	0.00	30.322 
19:10	62.1	62.1	62.1	27	27.7	2	5	112	0.00	30.322 
19:15	62.0	62.0	62.0	28	28.5	2	6	112	0.00	30.324 
19:20	61.8	61.8	61.8	27	27.5	2	4	112	0.00	30.324 
19:25	61.6	61.6	61.6	28	28.2	3	6	112	0.00	30.324 
19:30	61.5	61.5	61.5	28	28.1	3	4	68	0.00	30.319 
19:35	61.2	61.2	61.2	27	27.0	3	7	112	0.00	30.319 
19:40	61.0	61.0	61.0	28	27.7	2	5	90	0.00	30.319 
19:45	60.9	60.9	60.9	28	27.6	3	6	90	0.00	30.320 
19:50	60.5	60.5	60.5	29	28.1	3	5	90	0.00	30.320 
19:55	60.2	60.2	60.2	29	27.8	3	5	90	0.00	30.320 
20:00	59.9	59.9	59.9	29	27.6	3	5	90	0.00	30.318 
20:05	59.6	59.6	59.6	29	27.3	3	7	90	0.00	30.318 
20:10	59.3	59.3	59.3	31	28.7	3	6	90	0.00	30.318 
20:15	58.7	58.7	58.7	31	28.1	4	10	90	0.00	30.317 
20:20	58.3	58.3	58.3	31	27.8	4	8	90	0.00	30.317 
20:25	57.8	57.8	57.8	31	27.4	4	10	112	0.00	30.317 
20:30	57.3	57.3	57.3	32	27.7	4	7	112	0.00	30.319 
20:35	57.0	57.0	57.0	32	27.4	4	7	112	0.00	30.319 
20:40	56.9	56.9	56.9	34	28.8	4	7	90	0.00	30.319 
20:45	56.5	56.5	56.5	35	29.2	3	6	112	0.00	30.325 
20:50	56.2	56.2	56.2	36	29.6	2	5	112	0.00	30.325 
20:55	55.9	55.9	55.9	36	29.3	4	10	112	0.00	30.325 
21:00	55.4	55.4	55.4	35	28.2	3	6	112	0.00	30.332 
21:05	55.1	55.1	55.1	36	28.6	4	11	90	0.00	30.332 
21:10	55.0	55.0	55.0	36	28.5	3	9	90	0.00	30.332 
21:15	54.7	54.7	54.7	35	27.6	3	7	112	0.00	30.330 
21:20	54.5	54.5	54.5	35	27.4	4	7	90	0.00	30.330 
21:25	54.4	54.4	54.4	34	26.6	4	10	112	0.00	30.330 
21:30	54.2	54.2	54.2	34	26.4	4	10	112	0.00	30.332 
21:35	54.1	54.1	54.1	35	27.1	3	10	90	0.00	30.332 
21:40	53.9	53.9	53.9	34	26.2	4	6	90	0.00	30.332 
21:45	53.6	53.6	53.6	34	25.9	4	7	112	0.00	30.336 
21:50	53.6	53.6	53.6	35	26.6	3	9	90	0.00	30.336 
21:55	53.5	53.5	53.5	35	26.5	3	6	90	0.00	30.336 
22:00	53.3	53.3	53.3	35	26.4	3	5	90	0.00	30.337 
22:05	53.2	53.2	53.2	35	26.3	3	6	112	0.00	30.337 
22:10	53.2	53.2	53.2	35	26.3	3	6	90	0.00	30.337 
22:15	53.1	53.1	53.1	36	26.9	3	7	112	0.00	30.330 
22:20	52.9	52.9	52.9	36	26.7	3	6	112	0.00	30.330 
22:25	52.8	52.8	52.8	36	26.6	3	5	90	0.00	30.330 
22:30	52.8	52.8	52.8	35	25.9	3	7	112	0.00	30.329 
22:35	52.6	52.6	52.6	35	25.7	3	6	112	0.00	30.329 
22:40	52.6	52.6	52.6	35	25.7	4	10	112	0.00	30.329 
22:45	52.5	52.5	52.5	35	25.6	2	7	112	0.00	30.330 
22:50	52.3	52.3	52.3	36	26.1	2	9	112	0.00	30.330 
22:55	52.2	52.2	52.2	35	25.4	2	5	90	0.00	30.330 
23:00	52.0	52.0	52.0	34	24.5	2	6	90	0.00	30.338 
23:05	51.9	51.9	51.9	34	24.4	2	5	112	0.00	30.338 
23:10	51.9	51.9	51.9	34	24.4	2	7	112	0.00	30.338 
23:15	51.7	51.7	51.7	33	23.5	2	6	112	0.00	30.339 
23:20	51.7	51.7	51.7	33	23.5	3	7	112	0.00	30.339 
23:25	51.9	51.9	51.9	32	23.0	3	7	112	0.00	30.339 
23:30	51.9	51.9	51.9	34	24.4	2	9	112	0.00	30.343 
23:35	51.7	51.7	51.7	34	24.2	3	11	112	0.00	30.343 
23:40	51.6	51.6	51.6	35	24.9	3	10	90	0.00	30.343 
23:45	51.4	51.4	51.4	34	24.0	2	7	90	0.00	30.341 
23:50	51.4	51.4	51.4	33	23.3	4	7	112	0.00	30.341 
23:55	51.3	51.3	51.3	34	23.9	2	8	112	0.00	30.341 

CoCoRaHS
IN-AL-39
A2 Web Hosting
Creative Commons License
GoDaddy
search engine by freefind advanced

loaded 2018-11-17 14:29:25 • last modified 2010-11-18 10:43:29
Privacy PolicyDisclaimer
• wx.awcolley.com is powered by PmWiki v.2002016 •
• all content (unless otherwise noted) © 2018 A W Colley